createdAt,value
2018-05-04T03:01:07.776Z,0.00
2018-05-04T03:02:07.830Z,0.00
2018-05-04T03:03:07.971Z,0.00
2018-05-04T03:04:08.170Z,0.00
2018-05-04T03:05:08.292Z,0.00
2018-05-04T03:06:08.495Z,0.00
2018-05-04T03:07:08.648Z,0.00
2018-05-04T03:08:08.781Z,0.00
2018-05-04T03:09:08.959Z,0.00
2018-05-04T03:10:09.100Z,0.00
2018-05-04T03:11:09.236Z,0.00
2018-05-04T03:12:09.371Z,0.00
2018-05-04T03:13:09.614Z,0.00
2018-05-04T03:14:09.694Z,0.00
2018-05-04T03:15:09.939Z,0.00
2018-05-04T03:16:10.045Z,0.00
2018-05-04T03:17:10.214Z,4.00
2018-05-04T03:18:10.400Z,4.00
2018-05-04T03:19:10.554Z,4.00
2018-05-04T03:20:10.761Z,0.00
2018-05-04T03:21:10.894Z,4.00
2018-05-04T03:22:11.093Z,4.00
2018-05-04T03:23:11.241Z,4.00
2018-05-04T03:24:11.380Z,4.00
2018-05-04T03:25:11.572Z,8.00
2018-05-04T03:26:11.651Z,8.00
2018-05-04T03:27:11.882Z,8.00
2018-05-04T03:28:12.022Z,8.00
2018-05-04T03:29:12.143Z,12.00
2018-05-04T03:30:12.322Z,16.00
2018-05-04T03:31:12.462Z,16.00
2018-05-04T03:32:12.658Z,20.00
2018-05-04T03:33:12.746Z,24.00
2018-05-04T03:34:12.908Z,28.00
2018-05-04T03:35:13.077Z,32.00
2018-05-04T03:36:13.231Z,36.00
2018-05-04T03:37:13.438Z,40.00
2018-05-04T03:38:13.567Z,48.00
2018-05-04T03:39:13.744Z,56.00
2018-05-04T03:40:13.898Z,60.00
2018-05-04T03:41:14.058Z,68.00
2018-05-04T03:42:14.227Z,76.00
2018-05-04T03:43:14.363Z,92.00
2018-05-04T03:44:14.631Z,100.00
2018-05-04T03:45:14.688Z,112.00
2018-05-04T03:46:14.903Z,124.00
2018-05-04T03:47:15.091Z,140.00
2018-05-04T03:48:15.182Z,156.00
2018-05-04T03:49:15.336Z,172.00
2018-05-04T03:50:15.539Z,188.00
2018-05-04T03:51:15.705Z,208.00
2018-05-04T03:52:15.841Z,228.00
2018-05-04T03:53:16.012Z,244.00
2018-05-04T03:54:16.177Z,268.00
2018-05-04T03:55:16.326Z,288.00
2018-05-04T03:56:16.481Z,312.00
2018-05-04T03:57:16.642Z,336.00
2018-05-04T03:58:16.862Z,364.00
2018-05-04T03:59:17.035Z,388.00
2018-05-04T04:00:17.329Z,416.00
2018-05-04T04:01:17.309Z,444.00
2018-05-04T04:02:17.399Z,472.00
2018-05-04T04:03:17.593Z,504.00
2018-05-04T04:04:17.782Z,532.00
2018-05-04T04:05:17.884Z,560.00
2018-05-04T04:06:18.106Z,592.00
2018-05-04T04:07:18.240Z,624.00
2018-05-04T04:08:18.479Z,660.00
2018-05-04T04:09:18.625Z,692.00
2018-05-04T04:10:18.681Z,724.00
2018-05-04T04:11:18.898Z,760.00
2018-05-04T04:12:19.050Z,792.00
2018-05-04T04:13:19.235Z,824.00
2018-05-04T04:14:19.322Z,860.00
2018-05-04T04:15:19.488Z,892.00
2018-05-04T04:16:19.643Z,928.00
2018-05-04T04:17:19.892Z,964.00
2018-05-04T04:18:20.009Z,996.00
2018-05-04T04:19:20.183Z,1032.00
2018-05-04T04:20:20.302Z,1068.00
2018-05-04T04:21:20.540Z,1100.00
2018-05-04T04:22:20.655Z,1136.00
2018-05-04T04:23:20.858Z,1172.00
2018-05-04T04:24:20.920Z,1204.00
2018-05-04T04:25:21.129Z,1236.00
2018-05-04T04:26:21.259Z,1272.00
2018-05-04T04:27:21.497Z,1304.00
2018-05-04T04:28:21.630Z,1340.00
2018-05-04T04:29:21.765Z,1372.00
2018-05-04T04:30:21.982Z,1404.00
2018-05-04T04:31:22.061Z,1440.00
2018-05-04T04:32:22.207Z,1468.00
2018-05-04T04:33:22.443Z,1504.00
2018-05-04T04:34:22.611Z,1536.00
2018-05-04T04:35:22.806Z,1568.00
2018-05-04T04:36:22.915Z,1604.00
2018-05-04T04:37:23.079Z,1628.00
2018-05-04T04:38:23.189Z,1660.00
2018-05-04T04:39:23.375Z,1692.00
2018-05-04T04:40:23.536Z,1720.00
2018-05-04T04:41:23.731Z,1756.00
2018-05-04T04:42:23.827Z,1788.00
2018-05-04T04:43:24.046Z,1816.00
2018-05-04T04:44:24.224Z,1848.00
2018-05-04T04:45:24.328Z,1876.00
2018-05-04T04:46:24.550Z,1908.00
2018-05-04T04:47:24.657Z,1932.00
2018-05-04T04:48:24.850Z,1960.00
2018-05-04T04:49:25.041Z,1984.00
2018-05-04T04:50:25.196Z,2008.00
2018-05-04T04:51:25.358Z,2036.00
2018-05-04T04:52:25.512Z,2060.00
2018-05-04T04:53:25.685Z,2092.00
2018-05-04T04:54:25.824Z,2124.00
2018-05-04T04:55:25.944Z,2156.00
2018-05-04T04:56:26.165Z,2184.00
2018-05-04T04:57:26.330Z,2212.00
2018-05-04T04:58:26.425Z,2236.00
2018-05-04T04:59:26.643Z,2260.00
2018-05-04T05:00:26.794Z,2284.00
2018-05-04T05:01:26.953Z,2312.00
2018-05-04T05:02:27.146Z,2336.00
2018-05-04T05:03:27.255Z,2368.00
2018-05-04T05:04:27.407Z,2388.00
2018-05-04T05:05:27.600Z,2416.00
2018-05-04T05:06:27.759Z,2444.00
2018-05-04T05:07:27.915Z,2464.00
2018-05-04T05:08:28.041Z,2488.00
2018-05-04T05:09:28.232Z,2512.00
2018-05-04T05:10:28.420Z,2532.00
2018-05-04T05:11:28.570Z,2556.00
2018-05-04T05:12:28.751Z,2584.00
2018-05-04T05:13:28.893Z,2608.00
2018-05-04T05:14:29.099Z,2636.00
2018-05-04T05:15:29.232Z,2664.00
2018-05-04T05:16:29.405Z,2696.00
2018-05-04T05:17:29.561Z,2724.00
2018-05-04T05:18:29.737Z,2748.00
2018-05-04T05:19:29.863Z,2780.00
2018-05-04T05:20:30.070Z,2812.00
2018-05-04T05:21:30.213Z,2844.00
2018-05-04T05:22:30.375Z,2876.00
2018-05-04T05:23:30.478Z,2920.00
2018-05-04T05:24:30.630Z,2968.00
2018-05-04T05:25:30.854Z,3012.00
2018-05-04T05:26:31.009Z,3056.00
2018-05-04T05:27:31.143Z,3100.00
2018-05-04T05:28:31.361Z,3144.00
2018-05-04T05:29:31.558Z,3184.00
2018-05-04T05:30:31.637Z,3220.00
2018-05-04T05:31:31.848Z,3264.00
2018-05-04T05:32:31.993Z,3316.00
2018-05-04T05:33:32.155Z,3360.00
2018-05-04T05:34:32.306Z,3408.00
2018-05-04T05:35:32.505Z,3444.00
2018-05-04T05:36:32.580Z,3472.00
2018-05-04T05:37:32.731Z,3500.00
2018-05-04T05:38:32.963Z,3528.00
2018-05-04T05:39:33.111Z,3552.00
2018-05-04T05:40:33.298Z,3580.00
2018-05-04T05:41:33.395Z,3600.00
2018-05-04T05:42:33.549Z,3624.00
2018-05-04T05:43:33.708Z,3656.00
2018-05-04T05:44:33.878Z,3684.00
2018-05-04T05:45:34.125Z,3712.00
2018-05-04T05:46:34.235Z,3752.00
2018-05-04T05:47:34.382Z,3784.00
2018-05-04T05:48:34.613Z,3816.00
2018-05-04T05:49:34.748Z,3844.00
2018-05-04T05:50:34.959Z,3880.00
2018-05-04T05:51:35.049Z,3904.00
2018-05-04T05:52:35.224Z,3924.00
2018-05-04T05:53:35.394Z,3948.00
2018-05-04T05:54:35.603Z,3972.00
2018-05-04T05:55:35.764Z,4004.00
2018-05-04T05:56:35.929Z,4028.00
2018-05-04T05:57:36.057Z,4056.00
2018-05-04T05:58:36.203Z,4080.00
2018-05-04T05:59:36.409Z,4096.00
2018-05-04T06:00:36.544Z,4120.00
2018-05-04T06:01:36.706Z,4144.00
2018-05-04T06:02:36.930Z,4168.00
2018-05-04T06:03:37.103Z,4200.00
2018-05-04T06:04:37.232Z,4224.00
2018-05-04T06:05:37.426Z,4252.00
2018-05-04T06:06:37.544Z,4284.00
2018-05-04T06:07:37.777Z,4300.00
2018-05-04T06:08:37.865Z,4348.00
2018-05-04T06:09:38.041Z,4368.00
2018-05-04T06:10:38.251Z,4392.00
2018-05-04T06:11:38.390Z,4408.00
2018-05-04T06:12:38.611Z,4432.00
2018-05-04T06:13:38.705Z,4452.00
2018-05-04T06:14:38.850Z,4472.00
2018-05-04T06:15:39.069Z,4496.00
2018-05-04T06:16:39.167Z,4524.00
2018-05-04T06:17:39.311Z,4544.00
2018-05-04T06:18:39.483Z,4568.00
2018-05-04T06:19:39.684Z,4592.00
2018-05-04T06:20:39.817Z,4624.00
2018-05-04T06:21:40.013Z,4652.00
2018-05-04T06:22:40.180Z,4684.00
2018-05-04T06:23:40.390Z,4708.00
2018-05-04T06:24:40.472Z,4740.00
2018-05-04T06:25:40.675Z,4768.00
2018-05-04T06:26:40.797Z,4800.00
2018-05-04T06:27:41.000Z,4840.00
2018-05-04T06:28:41.197Z,4860.00
2018-05-04T06:29:41.307Z,4856.00
2018-05-04T06:30:41.502Z,4928.00
2018-05-04T06:31:41.701Z,4952.00
2018-05-04T06:32:41.852Z,4964.00
2018-05-04T06:33:41.986Z,4988.00
2018-05-04T06:34:42.173Z,5032.00
2018-05-04T06:35:42.272Z,5036.00
2018-05-04T06:36:42.528Z,5060.00
2018-05-04T06:37:42.603Z,5080.00
2018-05-04T06:38:42.832Z,5108.00
2018-05-04T06:39:43.027Z,5140.00
2018-05-04T06:40:43.113Z,5164.00
2018-05-04T06:41:43.327Z,5228.00
2018-05-04T06:42:43.491Z,5248.00
2018-05-04T06:43:43.625Z,5304.00
2018-05-04T06:44:43.786Z,5264.00
2018-05-04T06:45:44.021Z,5276.00
2018-05-04T06:46:44.308Z,5284.00
2018-05-04T06:47:44.405Z,5316.00
2018-05-04T06:48:44.634Z,5344.00
2018-05-04T06:49:44.685Z,5356.00
2018-05-04T06:50:44.912Z,5368.00
2018-05-04T06:51:45.029Z,5388.00
2018-05-04T06:52:45.171Z,5400.00
2018-05-04T06:53:45.322Z,5424.00
2018-05-04T06:54:45.539Z,5432.00
2018-05-04T06:55:45.649Z,5468.00
2018-05-04T06:56:45.884Z,5492.00
2018-05-04T06:57:46.036Z,5520.00
2018-05-04T06:58:46.226Z,5600.00
2018-05-04T06:59:46.370Z,5572.00
2018-05-04T07:00:46.591Z,5580.00
2018-05-04T07:01:46.704Z,5628.00
2018-05-04T07:02:46.882Z,5660.00
2018-05-04T07:03:47.049Z,5672.00
2018-05-04T07:04:47.290Z,5708.00
2018-05-04T07:05:47.465Z,5720.00
2018-05-04T07:06:47.522Z,5740.00
2018-05-04T07:07:47.709Z,5780.00
2018-05-04T07:08:47.896Z,5792.00
2018-05-04T07:09:48.011Z,5820.00
2018-05-04T07:10:48.209Z,5840.00
2018-05-04T07:11:48.408Z,5840.00
2018-05-04T07:12:48.473Z,5880.00
2018-05-04T07:13:48.674Z,5908.00
2018-05-04T07:14:48.878Z,5980.00
2018-05-04T07:15:49.002Z,5972.00
2018-05-04T07:16:49.149Z,6024.00
2018-05-04T07:17:49.349Z,6032.00
2018-05-04T07:18:49.484Z,6112.00
2018-05-04T07:19:49.674Z,6100.00
2018-05-04T07:20:49.839Z,6124.00
2018-05-04T07:21:49.942Z,6168.00
2018-05-04T07:22:50.181Z,6188.00
2018-05-04T07:23:50.314Z,6192.00
2018-05-04T07:24:50.460Z,6236.00
2018-05-04T07:25:50.602Z,6268.00
2018-05-04T07:26:50.810Z,6292.00
2018-05-04T07:27:50.953Z,6308.00
2018-05-04T07:28:51.148Z,6328.00
2018-05-04T07:29:51.266Z,6344.00
2018-05-04T07:30:51.444Z,6372.00
2018-05-04T07:31:51.670Z,6368.00
2018-05-04T07:32:51.752Z,6392.00
2018-05-04T07:33:51.987Z,6420.00
2018-05-04T07:34:52.114Z,6444.00
2018-05-04T07:35:52.376Z,6460.00
2018-05-04T07:36:52.450Z,6488.00
2018-05-04T07:37:53.381Z,6488.00
2018-05-04T07:38:52.814Z,6572.00
2018-05-04T07:39:52.954Z,6604.00
2018-05-04T07:40:53.128Z,6636.00
2018-05-04T07:41:53.252Z,6632.00
2018-05-04T07:42:53.476Z,6728.00
2018-05-04T07:43:53.675Z,6700.00
2018-05-04T07:44:53.800Z,6692.00
2018-05-04T07:45:53.988Z,6820.00
2018-05-04T07:46:54.104Z,6864.00
2018-05-04T07:47:54.269Z,6916.00
2018-05-04T07:48:54.412Z,6996.00
2018-05-04T07:49:54.633Z,7176.00
2018-05-04T07:50:54.815Z,7520.00
2018-05-04T07:51:54.990Z,7724.00
2018-05-04T07:52:55.131Z,7808.00
2018-05-04T07:53:55.312Z,7896.00
2018-05-04T07:54:55.487Z,8016.00
2018-05-04T07:55:55.595Z,8108.00
2018-05-04T07:56:55.781Z,8188.00
2018-05-04T07:57:55.990Z,8312.00
2018-05-04T07:58:56.162Z,8352.00
2018-05-04T07:59:56.258Z,8460.00
2018-05-04T08:00:56.531Z,8536.00
2018-05-04T08:01:56.615Z,8624.00
2018-05-04T08:02:56.858Z,8732.00
2018-05-04T08:03:56.990Z,8796.00
2018-05-04T08:04:57.112Z,8860.00
2018-05-04T08:05:57.251Z,8908.00
2018-05-04T08:06:57.498Z,9004.00
2018-05-04T08:07:57.615Z,9048.00
2018-05-04T08:08:57.822Z,9112.00
2018-05-04T08:09:58.028Z,9200.00
2018-05-04T08:10:58.173Z,9252.00
2018-05-04T08:11:58.345Z,9368.00
2018-05-04T08:12:58.498Z,9464.00
2018-05-04T08:13:58.678Z,9524.00
2018-05-04T08:14:58.825Z,9640.00
2018-05-04T08:15:58.999Z,9712.00
2018-05-04T08:16:59.178Z,9800.00
2018-05-04T08:17:59.283Z,9908.00
2018-05-04T08:18:59.444Z,9960.00
2018-05-04T08:19:59.657Z,10048.00
2018-05-04T08:20:59.790Z,10184.00
2018-05-04T08:21:59.977Z,10280.00
2018-05-04T08:23:00.115Z,10384.00
2018-05-04T08:24:00.359Z,10444.00
2018-05-04T08:25:00.508Z,10436.00
2018-05-04T08:26:00.647Z,10656.00
2018-05-04T08:27:00.781Z,10748.00
2018-05-04T08:28:00.979Z,10780.00
2018-05-04T08:29:01.096Z,10960.00
2018-05-04T08:30:01.294Z,11236.00
2018-05-04T08:31:01.500Z,11320.00
2018-05-04T08:32:01.619Z,11352.00
2018-05-04T08:33:01.810Z,11544.00
2018-05-04T08:34:02.010Z,11872.00
2018-05-04T08:35:02.169Z,12256.00
2018-05-04T08:36:02.316Z,12344.00
2018-05-04T08:37:02.471Z,11820.00
2018-05-04T08:38:02.680Z,11508.00
2018-05-04T08:39:02.831Z,11480.00
2018-05-04T08:40:02.936Z,11840.00
2018-05-04T08:41:03.096Z,12176.00
2018-05-04T08:42:03.265Z,10788.00
2018-05-04T08:43:03.520Z,9504.00
2018-05-04T08:44:03.620Z,9516.00
2018-05-04T08:45:03.778Z,9448.00
2018-05-04T08:46:03.899Z,9436.00
2018-05-04T08:47:04.166Z,9452.00
2018-05-04T08:48:04.339Z,9504.00
2018-05-04T08:49:04.404Z,9568.00
2018-05-04T08:50:04.661Z,9588.00
2018-05-04T08:51:04.849Z,9644.00
2018-05-04T08:52:05.003Z,9668.00
2018-05-04T08:53:05.095Z,9708.00
2018-05-04T08:54:05.355Z,9680.00
2018-05-04T08:55:05.455Z,9736.00
2018-05-04T08:56:05.579Z,9764.00
2018-05-04T08:57:05.852Z,9808.00
2018-05-04T08:58:05.991Z,9788.00
2018-05-04T08:59:06.147Z,9808.00
2018-05-04T09:00:06.340Z,9792.00
2018-05-04T09:01:06.529Z,9864.00
2018-05-04T09:02:06.601Z,9872.00
2018-05-04T09:03:06.771Z,9892.00
2018-05-04T09:04:06.937Z,9952.00
2018-05-04T09:05:07.160Z,10008.00
2018-05-04T09:06:07.322Z,10072.00
2018-05-04T09:07:07.455Z,10144.00
2018-05-04T09:08:07.661Z,10156.00
2018-05-04T09:09:07.835Z,10204.00
2018-05-04T09:10:07.977Z,10244.00
2018-05-04T09:11:08.135Z,10264.00
2018-05-04T09:12:08.269Z,10256.00
2018-05-04T09:13:08.478Z,10376.00
2018-05-04T09:14:08.613Z,10512.00
2018-05-04T09:15:08.775Z,11400.00
2018-05-04T09:16:08.939Z,14528.00
2018-05-04T09:17:09.105Z,18944.00
2018-05-04T09:18:09.274Z,23072.00
2018-05-04T09:19:09.423Z,24288.00
2018-05-04T09:20:09.577Z,24704.00
2018-05-04T09:21:09.745Z,24992.00
2018-05-04T09:22:09.913Z,24480.00
2018-05-04T09:23:10.106Z,24384.00
2018-05-04T09:24:10.244Z,24896.00
2018-05-04T09:25:10.387Z,25728.00
2018-05-04T09:26:10.592Z,25152.00
2018-05-04T09:27:10.706Z,26368.00
2018-05-04T09:28:10.901Z,27072.00
2018-05-04T09:29:11.048Z,25760.00
2018-05-04T09:30:11.280Z,27072.00
2018-05-04T09:31:11.447Z,27616.00
2018-05-04T09:32:11.544Z,27904.00
2018-05-04T09:33:11.767Z,28640.00
2018-05-04T09:34:11.879Z,29120.00
2018-05-04T09:35:12.091Z,28128.00
2018-05-04T09:36:12.247Z,28640.00
2018-05-04T09:37:12.392Z,29088.00
2018-05-04T09:38:12.521Z,29568.00
2018-05-04T09:39:12.700Z,30112.00
2018-05-04T09:40:12.870Z,31328.00
2018-05-04T09:41:13.064Z,30688.00
2018-05-04T09:42:13.213Z,30240.00
2018-05-04T09:43:13.364Z,32864.00
2018-05-04T09:44:13.549Z,34400.00
2018-05-04T09:45:13.675Z,34688.00
2018-05-04T09:46:13.852Z,34944.00
2018-05-04T09:47:14.057Z,35872.00
2018-05-04T09:48:14.166Z,37920.00
2018-05-04T09:49:14.334Z,37568.00
2018-05-04T09:50:14.550Z,36992.00
2018-05-04T09:51:14.657Z,37536.00
2018-05-04T09:52:14.831Z,38336.00
2018-05-04T09:53:15.067Z,38880.00
2018-05-04T09:54:15.172Z,39008.00
2018-05-04T09:55:15.420Z,38656.00
2018-05-04T09:56:15.569Z,39104.00
2018-05-04T09:57:15.752Z,40256.00
2018-05-04T09:58:15.870Z,40896.00
2018-05-04T09:59:16.078Z,40800.00
2018-05-04T10:00:16.203Z,40512.00
2018-05-04T10:01:16.346Z,40160.00
2018-05-04T10:02:16.568Z,41024.00
2018-05-04T10:03:16.747Z,43840.00
2018-05-04T10:04:16.873Z,44704.00
2018-05-04T10:05:17.103Z,44128.00
2018-05-04T10:06:17.336Z,44416.00
2018-05-04T10:07:17.469Z,43680.00
2018-05-04T10:08:17.588Z,40608.00
2018-05-04T10:09:17.738Z,40352.00
2018-05-04T10:10:17.944Z,40384.00
2018-05-04T10:11:18.096Z,40608.00
2018-05-04T10:12:18.261Z,43744.00
2018-05-04T10:13:18.472Z,45696.00
2018-05-04T10:14:18.631Z,43232.00
2018-05-04T10:15:19.727Z,44288.00
2018-05-04T10:16:18.969Z,44512.00
2018-05-04T10:17:19.060Z,43872.00
2018-05-04T10:18:19.279Z,46976.00
2018-05-04T10:19:19.381Z,48960.00
2018-05-04T10:20:19.573Z,49120.00
2018-05-04T10:21:19.731Z,50944.00
2018-05-04T10:22:19.929Z,47968.00
2018-05-04T10:23:20.079Z,43136.00
2018-05-04T10:24:20.293Z,41600.00
2018-05-04T10:25:20.456Z,43968.00
2018-05-04T10:26:20.691Z,48320.00
2018-05-04T10:27:20.920Z,50688.00
2018-05-04T10:28:21.052Z,52672.00
2018-05-04T10:29:21.148Z,53952.00
2018-05-04T10:30:21.368Z,53088.00
2018-05-04T10:31:21.905Z,50624.00
2018-05-04T10:32:21.601Z,48864.00
2018-05-04T10:33:21.763Z,46176.00
2018-05-04T10:34:21.945Z,43680.00
2018-05-04T10:35:22.101Z,43264.00
2018-05-04T10:36:22.281Z,47232.00
2018-05-04T10:37:22.487Z,50976.00
2018-05-04T10:38:22.926Z,52096.00
2018-05-04T10:39:22.751Z,54112.00
2018-05-04T10:40:22.962Z,56288.00
2018-05-04T10:41:23.140Z,57824.00
2018-05-04T10:42:23.332Z,60832.00
2018-05-04T10:43:23.619Z,60064.00
2018-05-04T10:44:23.664Z,54464.00
2018-05-04T10:45:23.839Z,53792.00
2018-05-04T10:46:23.936Z,57280.00
2018-05-04T10:47:24.062Z,60608.00
2018-05-04T10:48:24.255Z,60608.00
2018-05-04T10:49:24.425Z,58336.00
2018-05-04T10:50:24.621Z,58784.00
2018-05-04T10:51:24.815Z,59680.00
2018-05-04T10:52:24.899Z,59328.00
2018-05-04T10:53:25.087Z,59328.00
2018-05-04T10:54:25.287Z,60448.00
2018-05-04T10:55:25.394Z,60064.00
2018-05-04T10:56:25.608Z,59776.00
2018-05-04T10:57:25.776Z,62624.00
2018-05-04T10:58:25.974Z,60512.00
2018-05-04T10:59:26.105Z,56352.00
2018-05-04T11:00:26.259Z,55296.00
2018-05-04T11:01:26.485Z,54272.00
2018-05-04T11:02:26.645Z,52032.00
2018-05-04T11:03:26.841Z,54624.00
2018-05-04T11:04:26.982Z,56320.00
2018-05-04T11:05:27.925Z,53024.00
2018-05-04T11:06:27.359Z,55552.00
2018-05-04T11:07:27.498Z,59648.00
2018-05-04T11:08:27.624Z,58112.00
2018-05-04T11:09:27.796Z,60960.00
2018-05-04T11:10:28.007Z,67296.00
2018-05-04T11:11:28.197Z,60032.00
2018-05-04T11:12:28.384Z,49312.00
2018-05-04T11:13:28.484Z,54624.00
2018-05-04T11:14:28.710Z,65792.00
2018-05-04T11:15:28.824Z,66240.00
2018-05-04T11:16:29.012Z,63104.00
2018-05-04T11:17:29.208Z,67136.00
2018-05-04T11:18:29.370Z,71264.00
2018-05-04T11:19:29.544Z,68576.00
2018-05-04T11:20:29.695Z,65376.00
2018-05-04T11:21:29.841Z,64480.00
2018-05-04T11:22:30.056Z,64096.00
2018-05-04T11:23:30.172Z,62944.00
2018-05-04T11:24:30.451Z,63616.00
2018-05-04T11:25:30.673Z,67808.00
2018-05-04T11:26:30.704Z,69824.00
2018-05-04T11:27:30.887Z,69920.00
2018-05-04T11:28:31.070Z,69280.00
2018-05-04T11:29:31.239Z,69600.00
2018-05-04T11:30:31.378Z,69056.00
2018-05-04T11:31:31.547Z,71072.00
2018-05-04T11:32:31.780Z,70688.00
2018-05-04T11:33:31.903Z,70176.00
2018-05-04T11:34:32.069Z,71488.00
2018-05-04T11:35:32.220Z,71168.00
2018-05-04T11:36:32.398Z,69760.00
2018-05-04T11:37:32.612Z,68192.00
2018-05-04T11:38:32.732Z,67968.00
2018-05-04T11:39:32.889Z,68896.00
2018-05-04T11:40:33.156Z,69664.00
2018-05-04T11:41:33.342Z,71552.00
2018-05-04T11:42:33.479Z,72256.00
2018-05-04T11:43:33.706Z,71840.00
2018-05-04T11:44:33.903Z,70272.00
2018-05-04T11:45:34.039Z,69856.00
2018-05-04T11:46:34.164Z,71520.00
2018-05-04T11:47:34.397Z,71680.00
2018-05-04T11:48:34.532Z,71712.00
2018-05-04T11:49:34.791Z,72160.00
2018-05-04T11:50:34.866Z,73184.00
2018-05-04T11:51:35.071Z,73984.00
2018-05-04T11:52:35.212Z,73536.00
2018-05-04T11:53:35.437Z,74496.00
2018-05-04T11:54:35.645Z,73664.00
2018-05-04T11:55:35.785Z,74304.00
2018-05-04T11:56:36.040Z,75424.00
2018-05-04T11:57:36.133Z,76416.00
2018-05-04T11:58:36.395Z,77216.00
2018-05-04T11:59:36.600Z,77760.00
2018-05-04T12:00:36.741Z,77728.00
2018-05-04T12:01:36.966Z,76352.00
2018-05-04T12:02:37.093Z,75936.00
2018-05-04T12:03:37.398Z,76064.00
2018-05-04T12:04:37.525Z,76064.00
2018-05-04T12:05:37.696Z,73856.00
2018-05-04T12:06:37.819Z,71680.00
2018-05-04T12:07:37.971Z,72288.00
2018-05-04T12:08:38.155Z,73184.00
2018-05-04T12:09:38.330Z,73280.00
2018-05-04T12:10:38.567Z,74336.00
2018-05-04T12:11:38.665Z,77024.00
2018-05-04T12:12:38.826Z,77024.00
2018-05-04T12:13:39.026Z,74816.00
2018-05-04T12:14:39.216Z,73568.00
2018-05-04T12:15:39.342Z,74112.00
2018-05-04T12:16:39.561Z,75392.00
2018-05-04T12:17:39.671Z,77376.00
2018-05-04T12:18:39.886Z,80320.00
2018-05-04T12:19:40.085Z,80224.00
2018-05-04T12:20:40.256Z,74816.00
2018-05-04T12:21:40.366Z,74592.00
2018-05-04T12:22:40.642Z,76800.00
2018-05-04T12:23:40.787Z,75360.00
2018-05-04T12:24:40.908Z,73312.00
2018-05-04T12:25:41.131Z,73376.00
2018-05-04T12:26:41.267Z,75936.00
2018-05-04T12:27:41.445Z,77568.00
2018-05-04T12:28:41.646Z,77152.00
2018-05-04T12:29:41.863Z,77984.00
2018-05-04T12:30:41.990Z,78976.00
2018-05-04T12:31:42.176Z,78144.00
2018-05-04T12:32:42.354Z,77760.00
2018-05-04T12:33:42.473Z,77408.00
2018-05-04T12:34:42.646Z,76960.00
2018-05-04T12:35:42.822Z,78144.00
2018-05-04T12:36:43.039Z,76896.00
2018-05-04T12:37:43.242Z,75872.00
2018-05-04T12:38:43.389Z,76992.00
2018-05-04T12:39:43.527Z,78656.00
2018-05-04T12:40:43.680Z,77536.00
2018-05-04T12:41:43.875Z,77312.00
2018-05-04T12:42:44.147Z,79008.00
2018-05-04T12:43:44.319Z,80064.00
2018-05-04T12:44:44.472Z,76736.00
2018-05-04T12:45:44.653Z,73120.00
2018-05-04T12:46:44.868Z,71840.00
2018-05-04T12:47:44.994Z,72704.00
2018-05-04T12:48:45.185Z,73440.00
2018-05-04T12:49:45.332Z,77088.00
2018-05-04T12:50:45.588Z,80352.00
2018-05-04T12:51:45.727Z,78624.00
2018-05-04T12:52:45.908Z,76160.00
2018-05-04T12:53:46.101Z,75136.00
2018-05-04T12:54:46.250Z,76000.00
2018-05-04T12:55:46.403Z,71040.00
2018-05-04T12:56:46.620Z,68032.00
2018-05-04T12:57:46.710Z,69632.00
2018-05-04T12:58:46.901Z,71008.00
2018-05-04T12:59:47.092Z,65760.00
2018-05-04T13:00:47.223Z,60960.00
2018-05-04T13:01:47.465Z,61696.00
2018-05-04T13:02:47.666Z,64224.00
2018-05-04T13:03:47.778Z,66528.00
2018-05-04T13:04:48.063Z,68384.00
2018-05-04T13:05:48.166Z,76896.00
2018-05-04T13:06:48.414Z,87712.00
2018-05-04T13:07:48.583Z,86752.00
2018-05-04T13:08:48.709Z,75552.00
2018-05-04T13:09:48.895Z,68928.00
2018-05-04T13:10:49.030Z,69312.00
2018-05-04T13:11:49.248Z,73984.00
2018-05-04T13:12:49.385Z,74400.00
2018-05-04T13:13:49.579Z,66272.00
2018-05-04T13:14:49.810Z,58944.00
2018-05-04T13:15:49.996Z,63136.00
2018-05-04T13:16:50.302Z,76032.00
2018-05-04T13:17:50.300Z,84288.00
2018-05-04T13:18:50.560Z,77952.00
2018-05-04T13:19:50.696Z,68320.00
2018-05-04T13:20:50.831Z,65536.00
2018-05-04T13:21:51.030Z,71776.00
2018-05-04T13:22:51.172Z,75328.00
2018-05-04T13:23:51.433Z,76416.00
2018-05-04T13:24:51.572Z,74848.00
2018-05-04T13:25:51.769Z,74720.00
2018-05-04T13:26:51.874Z,76704.00
2018-05-04T13:27:52.076Z,77728.00
2018-05-04T13:28:52.286Z,77344.00
2018-05-04T13:29:52.502Z,74272.00
2018-05-04T13:30:52.583Z,72128.00
2018-05-04T13:31:52.883Z,72800.00
2018-05-04T13:32:53.001Z,74400.00
2018-05-04T13:33:53.183Z,73088.00
2018-05-04T13:34:53.360Z,69696.00
2018-05-04T13:35:53.497Z,69344.00
2018-05-04T13:36:53.685Z,70624.00
2018-05-04T13:37:53.813Z,72928.00
2018-05-04T13:38:53.964Z,73632.00
2018-05-04T13:39:54.179Z,72640.00
2018-05-04T13:40:54.512Z,70880.00
2018-05-04T13:41:54.554Z,72128.00
2018-05-04T13:42:54.738Z,75104.00
2018-05-04T13:43:54.964Z,76640.00
2018-05-04T13:44:55.058Z,72416.00
2018-05-04T13:45:55.280Z,68608.00
2018-05-04T13:46:55.387Z,70624.00
2018-05-04T13:47:55.543Z,74016.00
2018-05-04T13:48:55.747Z,73088.00
2018-05-04T13:49:55.990Z,69568.00
2018-05-04T13:50:56.151Z,70176.00
2018-05-04T13:51:56.308Z,73088.00
2018-05-04T13:52:56.473Z,74944.00
2018-05-04T13:53:56.641Z,73216.00
2018-05-04T13:54:56.892Z,72896.00
2018-05-04T13:55:57.008Z,74048.00
2018-05-04T13:56:57.141Z,74720.00
2018-05-04T13:57:57.335Z,72000.00
2018-05-04T13:58:57.511Z,70784.00
2018-05-04T13:59:57.679Z,71040.00
2018-05-04T14:00:57.861Z,69984.00
2018-05-04T14:01:58.028Z,66272.00
2018-05-04T14:02:58.151Z,62848.00
2018-05-04T14:03:58.410Z,59808.00
2018-05-04T14:04:58.632Z,61600.00
2018-05-04T14:05:58.801Z,65184.00
2018-05-04T14:06:59.009Z,67136.00
2018-05-04T14:07:59.152Z,65568.00
2018-05-04T14:08:59.315Z,68352.00
2018-05-04T14:09:59.485Z,72320.00
2018-05-04T14:10:59.643Z,73792.00
2018-05-04T14:11:59.848Z,73280.00
2018-05-04T14:13:00.019Z,69440.00
2018-05-04T14:14:00.113Z,66528.00
2018-05-04T14:15:00.353Z,66272.00
2018-05-04T14:16:00.538Z,69216.00
2018-05-04T14:17:00.665Z,71104.00
2018-05-04T14:18:00.834Z,71104.00
2018-05-04T14:19:01.014Z,71456.00
2018-05-04T14:20:01.182Z,71168.00
2018-05-04T14:21:01.365Z,65792.00
2018-05-04T14:22:01.526Z,62112.00
2018-05-04T14:23:01.670Z,63328.00
2018-05-04T14:24:01.898Z,64192.00
2018-05-04T14:25:02.038Z,70880.00
2018-05-04T14:26:02.242Z,74016.00
2018-05-04T14:27:02.402Z,69984.00
2018-05-04T14:28:02.550Z,64192.00
2018-05-04T14:29:02.792Z,64512.00
2018-05-04T14:30:02.980Z,72512.00
2018-05-04T14:31:03.078Z,76320.00
2018-05-04T14:32:03.309Z,72736.00
2018-05-04T14:33:03.444Z,66368.00
2018-05-04T14:34:03.575Z,63872.00
2018-05-04T14:35:03.823Z,64384.00
2018-05-04T14:36:04.005Z,62976.00
2018-05-04T14:37:04.128Z,61152.00
2018-05-04T14:38:04.333Z,60928.00
2018-05-04T14:39:04.473Z,64192.00
2018-05-04T14:40:04.676Z,66848.00
2018-05-04T14:41:04.853Z,64992.00
2018-05-04T14:42:04.979Z,64832.00
2018-05-04T14:43:05.187Z,63712.00
2018-05-04T14:44:05.318Z,61536.00
2018-05-04T14:45:05.546Z,62080.00
2018-05-04T14:46:05.721Z,63552.00
2018-05-04T14:47:05.880Z,67200.00
2018-05-04T14:48:06.047Z,72864.00
2018-05-04T14:49:06.265Z,72096.00
2018-05-04T14:50:06.401Z,62016.00
2018-05-04T14:51:06.525Z,53984.00
2018-05-04T14:52:07.415Z,58048.00
2018-05-04T14:53:07.839Z,60064.00
2018-05-04T14:54:07.213Z,52320.00
2018-05-04T14:55:07.375Z,48352.00
2018-05-04T14:56:07.479Z,52704.00
2018-05-04T14:57:07.728Z,54368.00
2018-05-04T14:58:07.867Z,53408.00
2018-05-04T14:59:08.079Z,54560.00
2018-05-04T15:00:08.231Z,57664.00
2018-05-04T15:01:08.410Z,57312.00